Time;durP1;ratioP1;P1;durP2;ratioP2;P2;SDS_P1;SDS_P2;PMS_P1;PMS_P2;Temp;Humidity;BMP_temperature;BMP_pressure;BME280_temperature;BME280_humidity;BME280_pressure;Samples;Min_cycle;Max_cycle;Signal;HPM_P1;HPM_P2
2021/11/07 00:05:10;;;;;;;40.63;13.03;;;;;;;;;;6344086;22;20172;-89
2021/11/07 00:11:51;;;;;;;55.03;13.63;;;;;;;;;;6367354;22;20231;-90
2021/11/07 00:15:04;;;;;;;38.10;13.90;;;;;;;;;;6367573;22;20229;-89
2021/11/07 00:18:18;;;;;;;71.50;13.60;;;;;;;;;;6367008;22;20160;-89
2021/11/07 00:21:32;;;;;;;52.10;13.37;;;;;;;;;;6365948;22;20232;-89
2021/11/07 00:24:47;;;;;;;43.73;13.23;;;;;;;;;;6365471;22;20667;-89
2021/11/07 00:28:01;;;;;;;51.43;13.37;;;;;;;;;;6365833;22;20168;-89
2021/11/07 00:31:25;;;;;;;77.57;13.53;;;;;;;;;;6366145;22;20155;-90
2021/11/07 00:35:35;;;;;;;86.03;14.73;;;;;;;;;;6365089;22;20190;-89
2021/11/07 00:38:52;;;;;;;40.77;12.43;;;;;;;;;;6365748;22;20168;-89
2021/11/07 00:42:10;;;;;;;95.90;13.80;;;;;;;;;;6367133;22;20171;-88
2021/11/07 00:45:28;;;;;;;63.30;13.23;;;;;;;;;;6366225;22;20231;-88
2021/11/07 00:48:44;;;;;;;50.10;13.87;;;;;;;;;;6365757;22;20152;-88
2021/11/07 00:52:04;;;;;;;78.70;14.17;;;;;;;;;;6367934;22;20159;-89
2021/11/07 00:55:23;;;;;;;35.03;13.27;;;;;;;;;;6368199;22;20325;-87
2021/11/07 00:58:38;;;;;;;37.00;12.87;;;;;;;;;;6367390;22;20168;-88
2021/11/07 01:01:52;;;;;;;46.03;12.70;;;;;;;;;;6368027;22;20169;-86
2021/11/07 01:05:08;;;;;;;51.10;14.27;;;;;;;;;;6369271;22;20147;-88
2021/11/07 01:08:20;;;;;;;49.23;12.83;;;;;;;;;;6368459;22;20168;-89
2021/11/07 01:11:32;;;;;;;39.30;12.90;;;;;;;;;;6368654;22;20159;-87
2021/11/07 01:14:45;;;;;;;36.43;13.73;;;;;;;;;;6368124;22;20811;-88
2021/11/07 01:17:57;;;;;;;40.90;13.30;;;;;;;;;;6368298;22;20193;-88
2021/11/07 01:21:12;;;;;;;48.00;12.97;;;;;;;;;;6367373;22;20249;-88
2021/11/07 01:24:29;;;;;;;35.87;12.40;;;;;;;;;;6367719;22;20171;-87
2021/11/07 01:27:42;;;;;;;28.97;12.73;;;;;;;;;;6367065;22;20291;-89
2021/11/07 01:30:56;;;;;;;30.23;11.80;;;;;;;;;;6367158;22;20202;-89
2021/11/07 01:34:15;;;;;;;33.10;11.97;;;;;;;;;;6368611;22;20211;-88
2021/11/07 01:37:37;;;;;;;33.03;13.43;;;;;;;;;;6366770;22;20246;-87
2021/11/07 01:40:58;;;;;;;31.17;12.17;;;;;;;;;;6366680;22;20172;-89
2021/11/07 01:44:10;;;;;;;27.87;11.57;;;;;;;;;;6368285;22;20156;-90
2021/11/07 01:47:23;;;;;;;25.63;11.47;;;;;;;;;;6369023;22;20206;-88
2021/11/07 01:50:39;;;;;;;28.97;10.67;;;;;;;;;;6367751;22;20186;-89
2021/11/07 01:53:54;;;;;;;24.93;10.77;;;;;;;;;;6366348;22;20163;-89
2021/11/07 01:57:05;;;;;;;28.60;10.53;;;;;;;;;;6368690;22;20168;-89
2021/11/07 02:00:19;;;;;;;22.87;10.50;;;;;;;;;;6368958;22;20164;-89
2021/11/07 02:03:30;;;;;;;24.57;10.43;;;;;;;;;;6369536;22;20278;-90
2021/11/07 02:06:42;;;;;;;23.10;10.00;;;;;;;;;;6367631;22;20171;-88
2021/11/07 02:09:56;;;;;;;27.67;10.30;;;;;;;;;;6368878;22;20211;-90
2021/11/07 02:13:08;;;;;;;23.97;10.63;;;;;;;;;;6367847;22;20600;-91
2021/11/07 02:16:21;;;;;;;25.83;9.80;;;;;;;;;;6368026;22;20195;-90
2021/11/07 02:19:34;;;;;;;21.60;10.00;;;;;;;;;;6368095;22;20163;-87
2021/11/07 02:22:47;;;;;;;25.30;10.57;;;;;;;;;;6368751;22;20151;-88
2021/11/07 02:26:03;;;;;;;32.23;12.10;;;;;;;;;;6369154;22;20249;-90
2021/11/07 02:29:14;;;;;;;44.67;11.00;;;;;;;;;;6368111;22;20179;-91
2021/11/07 02:32:27;;;;;;;34.20;11.70;;;;;;;;;;6366805;22;20151;-89
2021/11/07 02:35:39;;;;;;;38.10;11.73;;;;;;;;;;6368479;22;20176;-88
2021/11/07 02:38:52;;;;;;;43.50;11.47;;;;;;;;;;6368085;22;20155;-88
2021/11/07 02:42:05;;;;;;;35.13;11.07;;;;;;;;;;6367169;22;20301;-89
2021/11/07 02:45:17;;;;;;;36.97;11.33;;;;;;;;;;6366658;22;20171;-90
2021/11/07 02:48:28;;;;;;;35.07;11.00;;;;;;;;;;6365383;22;20163;-89
2021/11/07 02:51:41;;;;;;;27.80;11.17;;;;;;;;;;6369029;22;20236;-89
2021/11/07 02:54:54;;;;;;;30.73;11.33;;;;;;;;;;6370461;22;20374;-89
2021/11/07 02:58:05;;;;;;;26.73;10.57;;;;;;;;;;6370479;22;20213;-90
2021/11/07 03:01:20;;;;;;;26.13;11.23;;;;;;;;;;6371005;22;20163;-87
2021/11/07 03:04:33;;;;;;;36.30;10.67;;;;;;;;;;6369181;22;20159;-88
2021/11/07 03:07:45;;;;;;;28.33;10.43;;;;;;;;;;6370907;22;20160;-89
2021/11/07 03:10:59;;;;;;;31.30;11.63;;;;;;;;;;6372227;22;20488;-90
2021/11/07 03:14:12;;;;;;;26.53;11.33;;;;;;;;;;6370152;22;20155;-88
2021/11/07 03:17:26;;;;;;;27.73;11.17;;;;;;;;;;6370182;22;20183;-88
2021/11/07 03:20:37;;;;;;;31.43;10.33;;;;;;;;;;6370051;22;20143;-88
2021/11/07 03:23:51;;;;;;;30.80;11.20;;;;;;;;;;6369597;22;20179;-88
2021/11/07 03:27:11;;;;;;;29.60;11.13;;;;;;;;;;6370817;22;20168;-89
2021/11/07 03:30:33;;;;;;;30.07;11.20;;;;;;;;;;6370562;22;20159;-88
2021/11/07 03:33:48;;;;;;;30.87;11.63;;;;;;;;;;6370948;22;20176;-89
2021/11/07 03:37:00;;;;;;;37.67;11.60;;;;;;;;;;6369862;22;20160;-90
2021/11/07 03:40:13;;;;;;;57.67;11.57;;;;;;;;;;6370278;22;20183;-90
2021/11/07 03:43:28;;;;;;;37.43;12.37;;;;;;;;;;6370132;22;20160;-89
2021/11/07 03:46:40;;;;;;;37.87;11.87;;;;;;;;;;6370017;22;20231;-89
2021/11/07 03:49:52;;;;;;;30.67;11.47;;;;;;;;;;6368379;22;20290;-89
2021/11/07 03:53:04;;;;;;;39.20;12.87;;;;;;;;;;6369690;22;20213;-89
2021/11/07 03:56:15;;;;;;;29.03;11.07;;;;;;;;;;6369965;22;20195;-89
2021/11/07 03:59:28;;;;;;;32.37;11.33;;;;;;;;;;6370625;22;20159;-88
2021/11/07 04:02:40;;;;;;;33.97;10.87;;;;;;;;;;6369674;22;20168;-89
2021/11/07 04:05:53;;;;;;;29.10;10.07;;;;;;;;;;6368275;22;20159;-90
2021/11/07 04:09:04;;;;;;;27.27;9.47;;;;;;;;;;6369914;22;20289;-89
2021/11/07 04:12:16;;;;;;;37.87;10.40;;;;;;;;;;6386224;22;20168;-90
2021/11/07 04:15:30;;;;;;;31.17;11.10;;;;;;;;;;6369015;22;20337;-90
2021/11/07 04:18:42;;;;;;;37.97;11.17;;;;;;;;;;6370417;22;20168;-90
2021/11/07 04:21:56;;;;;;;37.53;11.60;;;;;;;;;;6368604;22;20164;-90
2021/11/07 04:25:09;;;;;;;35.17;10.93;;;;;;;;;;6368611;22;20213;-89
2021/11/07 04:28:21;;;;;;;31.33;10.60;;;;;;;;;;6370262;22;20204;-90
2021/11/07 04:31:34;;;;;;;30.00;10.83;;;;;;;;;;6368871;22;20164;-90
2021/11/07 04:38:44;;;;;;;29.17;11.47;;;;;;;;;;6368231;22;20193;-87
2021/11/07 04:41:56;;;;;;;35.27;11.83;;;;;;;;;;6369271;22;20645;-90
2021/11/07 04:45:08;;;;;;;29.87;10.60;;;;;;;;;;6367635;22;20206;-89
2021/11/07 04:48:22;;;;;;;38.93;12.93;;;;;;;;;;6368908;22;20156;-90
2021/11/07 04:51:34;;;;;;;33.53;12.30;;;;;;;;;;6367910;22;20159;-89
2021/11/07 04:54:46;;;;;;;49.03;12.47;;;;;;;;;;6369088;22;20216;-90
2021/11/07 04:57:58;;;;;;;33.83;12.43;;;;;;;;;;6369088;22;20164;-90
2021/11/07 05:01:56;;;;;;;37.90;12.43;;;;;;;;;;6367349;22;20187;-91
2021/11/07 05:05:09;;;;;;;47.47;12.97;;;;;;;;;;6369752;22;20172;-91
2021/11/07 05:08:21;;;;;;;57.70;12.60;;;;;;;;;;6369471;22;20214;-90
2021/11/07 05:11:32;;;;;;;40.80;11.90;;;;;;;;;;6365637;22;20168;-89
2021/11/07 05:14:44;;;;;;;44.77;12.63;;;;;;;;;;6366139;22;20177;-90
2021/11/07 05:17:56;;;;;;;43.97;11.60;;;;;;;;;;6367392;22;20182;-89
2021/11/07 05:21:10;;;;;;;46.37;12.17;;;;;;;;;;6368882;22;20160;-90
2021/11/07 05:24:22;;;;;;;35.67;11.23;;;;;;;;;;6368874;22;20487;-90
2021/11/07 05:27:35;;;;;;;38.73;10.23;;;;;;;;;;6370082;22;20222;-89
2021/11/07 05:30:47;;;;;;;35.50;12.10;;;;;;;;;;6369924;22;20162;-89
2021/11/07 05:33:58;;;;;;;35.60;12.13;;;;;;;;;;6371140;22;20183;-90
2021/11/07 05:37:12;;;;;;;40.23;13.60;;;;;;;;;;6372099;22;20207;-89
2021/11/07 05:40:23;;;;;;;46.83;13.10;;;;;;;;;;6371751;22;20167;-89
2021/11/07 05:43:36;;;;;;;41.27;14.33;;;;;;;;;;6372190;22;20195;-90
2021/11/07 05:46:48;;;;;;;44.40;13.30;;;;;;;;;;6371843;22;20168;-86
2021/11/07 05:50:01;;;;;;;34.77;12.37;;;;;;;;;;6369999;22;20160;-89
2021/11/07 05:53:14;;;;;;;37.90;13.20;;;;;;;;;;6370151;22;20179;-87
2021/11/07 05:56:25;;;;;;;43.93;12.83;;;;;;;;;;6368793;22;20188;-88
2021/11/07 05:59:37;;;;;;;37.53;13.40;;;;;;;;;;6368266;22;20164;-90
2021/11/07 06:02:49;;;;;;;44.83;14.27;;;;;;;;;;6369460;22;20160;-90
2021/11/07 06:06:01;;;;;;;38.93;13.37;;;;;;;;;;6368390;22;20159;-88
2021/11/07 06:09:14;;;;;;;46.73;13.37;;;;;;;;;;6368038;22;20219;-87
2021/11/07 06:12:25;;;;;;;39.23;13.03;;;;;;;;;;6369826;22;20174;-91
2021/11/07 06:15:37;;;;;;;41.43;13.33;;;;;;;;;;6370327;22;20187;-88
2021/11/07 06:18:48;;;;;;;37.40;12.20;;;;;;;;;;6369616;22;20608;-90
2021/11/07 06:22:00;;;;;;;38.90;13.00;;;;;;;;;;6369217;22;20164;-87
2021/11/07 06:25:14;;;;;;;35.27;12.37;;;;;;;;;;6367618;22;20191;-88
2021/11/07 06:28:26;;;;;;;39.60;13.63;;;;;;;;;;6368802;22;20199;-88
2021/11/07 06:31:38;;;;;;;38.47;13.30;;;;;;;;;;6369913;22;20178;-89
2021/11/07 06:38:52;;;;;;;41.53;13.40;;;;;;;;;;6368908;22;20213;-89
2021/11/07 06:42:06;;;;;;;38.17;12.27;;;;;;;;;;6368693;22;20151;-88
2021/11/07 06:45:17;;;;;;;36.50;13.70;;;;;;;;;;6367920;22;20160;-87
2021/11/07 06:48:29;;;;;;;39.20;12.67;;;;;;;;;;6368569;22;20186;-88
2021/11/07 06:51:43;;;;;;;38.60;12.70;;;;;;;;;;6368483;22;20159;-88
2021/11/07 06:54:55;;;;;;;37.17;12.77;;;;;;;;;;6368011;22;20690;-87
2021/11/07 06:58:08;;;;;;;39.03;13.67;;;;;;;;;;6368751;22;20298;-88
2021/11/07 07:01:19;;;;;;;41.33;13.93;;;;;;;;;;6367127;22;20206;-88
2021/11/07 07:04:30;;;;;;;49.27;13.97;;;;;;;;;;6367329;22;20195;-88
2021/11/07 07:07:45;;;;;;;48.10;13.97;;;;;;;;;;6368458;22;20175;-89
2021/11/07 07:11:00;;;;;;;42.10;13.97;;;;;;;;;;6367989;22;20218;-89
2021/11/07 07:14:17;;;;;;;43.07;14.07;;;;;;;;;;6367434;22;20163;-89
2021/11/07 07:17:33;;;;;;;39.53;14.53;;;;;;;;;;6367597;22;20205;-88
2021/11/07 07:20:53;;;;;;;38.10;13.70;;;;;;;;;;6369155;22;20151;-89
2021/11/07 07:27:53;;;;;;;39.17;15.10;;;;;;;;;;6368627;22;20192;-89
2021/11/07 07:34:42;;;;;;;40.37;15.03;;;;;;;;;;6356157;22;20183;-89
2021/11/07 07:37:54;;;;;;;32.67;14.27;;;;;;;;;;6366967;22;20167;-90
2021/11/07 07:41:06;;;;;;;38.87;14.47;;;;;;;;;;6366858;22;20285;-89
2021/11/07 07:44:18;;;;;;;32.10;13.50;;;;;;;;;;6366300;22;20172;-91
2021/11/07 07:47:32;;;;;;;30.27;13.50;;;;;;;;;;6367311;22;20227;-88
2021/11/07 07:50:44;;;;;;;30.80;12.73;;;;;;;;;;6366264;22;20164;-91
2021/11/07 07:53:59;;;;;;;27.63;12.60;;;;;;;;;;6366209;22;20168;-88
2021/11/07 07:57:11;;;;;;;26.57;11.63;;;;;;;;;;6368494;22;20187;-88
2021/11/07 08:00:23;;;;;;;23.70;11.37;;;;;;;;;;6367882;22;20175;-88
2021/11/07 08:03:36;;;;;;;25.80;11.13;;;;;;;;;;6367109;22;20163;-90
2021/11/07 08:06:48;;;;;;;22.97;10.80;;;;;;;;;;6367364;22;20152;-89
2021/11/07 08:10:02;;;;;;;25.20;10.77;;;;;;;;;;6367114;22;20159;-89
2021/11/07 08:13:13;;;;;;;25.80;10.97;;;;;;;;;;6367204;22;20222;-89
2021/11/07 08:16:28;;;;;;;23.40;10.70;;;;;;;;;;6368756;22;20332;-86
2021/11/07 08:19:40;;;;;;;24.10;10.37;;;;;;;;;;6367599;22;20213;-89
2021/11/07 08:22:52;;;;;;;24.97;10.87;;;;;;;;;;6366727;22;20164;-89
2021/11/07 08:26:04;;;;;;;32.37;14.33;;;;;;;;;;6367405;22;20168;-90
2021/11/07 08:29:17;;;;;;;24.40;11.57;;;;;;;;;;6368453;22;20171;-88
2021/11/07 08:32:29;;;;;;;22.30;10.33;;;;;;;;;;6366825;22;20167;-88
2021/11/07 08:35:48;;;;;;;24.03;11.13;;;;;;;;;;6366386;22;20221;-88
2021/11/07 08:39:03;;;;;;;20.67;9.93;;;;;;;;;;6368389;22;20190;-86
2021/11/07 08:42:18;;;;;;;19.43;8.27;;;;;;;;;;6369316;22;20159;-87
2021/11/07 09:03:14;;;;;;;17.87;8.43;;;;;;;;;;6366198;22;20163;-89
2021/11/07 09:06:44;;;;;;;16.67;8.50;;;;;;;;;;6366870;22;20171;-88
2021/11/07 09:09:59;;;;;;;21.20;9.30;;;;;;;;;;6366078;22;20168;-88
2021/11/07 09:13:12;;;;;;;18.13;8.97;;;;;;;;;;6350281;22;20206;-88
2021/11/07 09:16:23;;;;;;;17.83;8.40;;;;;;;;;;6348363;22;20207;-89
2021/11/07 09:19:37;;;;;;;19.70;8.70;;;;;;;;;;6368013;22;20599;-90
2021/11/07 09:22:51;;;;;;;17.47;8.70;;;;;;;;;;6366409;22;20180;-89
2021/11/07 09:26:19;;;;;;;21.27;10.27;;;;;;;;;;6367212;22;20172;-89
2021/11/07 09:29:43;;;;;;;22.60;8.33;;;;;;;;;;6367975;22;20221;-90
2021/11/07 09:33:01;;;;;;;17.30;8.50;;;;;;;;;;6367984;22;20176;-90
2021/11/07 09:36:18;;;;;;;19.53;8.90;;;;;;;;;;6366959;22;20510;-90
2021/11/07 09:39:35;;;;;;;17.27;8.47;;;;;;;;;;6366823;22;20164;-89
2021/11/07 09:46:29;;;;;;;21.20;10.27;;;;;;;;;;6367441;22;20552;-89
2021/11/07 09:49:47;;;;;;;19.73;9.50;;;;;;;;;;6367437;22;20294;-90
2021/11/07 09:53:00;;;;;;;18.83;8.80;;;;;;;;;;6366386;22;20163;-90
2021/11/07 09:56:13;;;;;;;19.03;9.10;;;;;;;;;;6369740;22;20175;-89
2021/11/07 09:59:29;;;;;;;20.33;9.60;;;;;;;;;;6369424;22;20167;-88
2021/11/07 10:02:41;;;;;;;21.50;10.33;;;;;;;;;;6367544;22;20242;-88
2021/11/07 10:05:55;;;;;;;16.73;8.73;;;;;;;;;;6368757;22;20212;-88
2021/11/07 10:09:09;;;;;;;21.17;9.40;;;;;;;;;;6366261;22;20163;-90
2021/11/07 10:12:28;;;;;;;18.00;9.10;;;;;;;;;;6368896;22;20710;-90
2021/11/07 10:15:45;;;;;;;20.53;9.23;;;;;;;;;;6367344;22;20258;-89
2021/11/07 10:19:16;;;;;;;19.57;9.10;;;;;;;;;;6365886;22;20210;-88
2021/11/07 10:22:29;;;;;;;19.40;9.73;;;;;;;;;;6367005;22;20175;-88
2021/11/07 10:25:47;;;;;;;21.40;9.90;;;;;;;;;;6368370;22;20210;-89
2021/11/07 10:29:00;;;;;;;20.67;10.40;;;;;;;;;;6367336;22;20249;-90
2021/11/07 10:32:25;;;;;;;23.20;10.57;;;;;;;;;;6367756;22;20171;-90
2021/11/07 10:42:49;;;;;;;18.77;9.20;;;;;;;;;;6383488;22;20166;-89
2021/11/07 16:11:28;;;;;;;27.47;12.53;;;;;;;;;;6150687;22;2270493;-89
2021/11/07 16:14:56;;;;;;;39.97;16.73;;;;;;;;;;6274888;22;20237;-89
2021/11/07 16:18:03;;;;;;;32.87;14.90;;;;;;;;;;6274980;22;20265;-90
2021/11/07 16:21:11;;;;;;;33.87;15.33;;;;;;;;;;6272624;22;20170;-90
2021/11/07 16:24:17;;;;;;;31.00;14.53;;;;;;;;;;6273441;22;20186;-91
2021/11/07 16:27:25;;;;;;;32.20;14.50;;;;;;;;;;6273695;22;20238;-89
2021/11/07 16:30:32;;;;;;;31.70;14.30;;;;;;;;;;6273573;22;20170;-87
2021/11/07 16:33:40;;;;;;;27.67;13.10;;;;;;;;;;6255710;22;20285;-89
2021/11/07 16:36:48;;;;;;;30.57;13.60;;;;;;;;;;6272874;22;20165;-90
2021/11/07 16:40:00;;;;;;;29.13;12.93;;;;;;;;;;6272207;22;20158;-89
2021/11/07 16:43:07;;;;;;;30.73;13.43;;;;;;;;;;6272281;22;20654;-89
2021/11/07 16:46:15;;;;;;;27.67;13.40;;;;;;;;;;6273241;22;20169;-89
2021/11/07 16:49:23;;;;;;;29.00;13.13;;;;;;;;;;6273911;22;20208;-90
2021/11/07 16:52:30;;;;;;;32.80;14.20;;;;;;;;;;6271763;22;20242;-88
2021/11/07 16:55:39;;;;;;;29.77;13.13;;;;;;;;;;6271821;22;20186;-89
2021/11/07 17:02:10;;;;;;;35.10;15.13;;;;;;;;;;6270311;22;20170;-89
2021/11/07 17:05:20;;;;;;;38.43;15.87;;;;;;;;;;6272114;22;20268;-88
2021/11/07 17:08:30;;;;;;;36.73;15.00;;;;;;;;;;6272110;22;20202;-89
2021/11/07 17:15:00;;;;;;;30.70;14.10;;;;;;;;;;6272312;22;20166;-91
2021/11/07 17:18:15;;;;;;;34.57;15.13;;;;;;;;;;6272288;22;20268;-89
2021/11/07 17:24:48;;;;;;;39.03;15.97;;;;;;;;;;6270605;22;20328;-89
2021/11/07 17:28:04;;;;;;;101.40;46.33;;;;;;;;;;6271801;22;20181;-88
2021/11/07 17:31:16;;;;;;;43.87;18.20;;;;;;;;;;6270182;22;20196;-89
2021/11/07 17:34:28;;;;;;;40.47;16.57;;;;;;;;;;6270354;22;20194;-88
2021/11/07 17:37:40;;;;;;;38.83;17.37;;;;;;;;;;6271438;22;20177;-89
2021/11/07 17:54:29;;;;;;;36.97;16.20;;;;;;;;;;6270313;22;20166;-90
2021/11/07 17:57:37;;;;;;;36.80;15.73;;;;;;;;;;6271669;22;20177;-91
2021/11/07 18:00:59;;;;;;;33.83;15.37;;;;;;;;;;6275394;22;20170;-89
2021/11/07 18:04:07;;;;;;;34.83;15.97;;;;;;;;;;6280097;22;20170;-89
2021/11/07 18:07:23;;;;;;;35.63;16.40;;;;;;;;;;6280229;22;20224;-89
2021/11/07 18:10:29;;;;;;;37.97;17.13;;;;;;;;;;6277190;22;20212;-91
2021/11/07 18:13:36;;;;;;;37.10;16.00;;;;;;;;;;6276490;22;20183;-88
2021/11/07 18:16:42;;;;;;;35.27;15.97;;;;;;;;;;6273137;22;20184;-90
2021/11/07 18:19:49;;;;;;;34.57;14.87;;;;;;;;;;6269053;22;20280;-88
2021/11/07 18:22:57;;;;;;;37.70;16.80;;;;;;;;;;6272007;22;20186;-88
2021/11/07 18:26:04;;;;;;;55.77;22.83;;;;;;;;;;6289435;22;20296;-90
2021/11/07 18:29:10;;;;;;;36.53;16.23;;;;;;;;;;6271117;22;20194;-89
2021/11/07 18:32:14;;;;;;;34.83;15.87;;;;;;;;;;6275365;22;20222;-89
2021/11/07 18:35:32;;;;;;;32.50;14.97;;;;;;;;;;6271600;22;20166;-90
2021/11/07 18:38:38;;;;;;;35.33;16.43;;;;;;;;;;6272640;22;20174;-85
2021/11/07 18:41:43;;;;;;;38.87;15.63;;;;;;;;;;6271672;22;20213;-88
2021/11/07 18:44:50;;;;;;;45.33;18.60;;;;;;;;;;6270963;22;20177;-88
2021/11/07 18:47:55;;;;;;;38.63;16.27;;;;;;;;;;6272883;22;20197;-89
2021/11/07 18:51:03;;;;;;;36.03;16.23;;;;;;;;;;6273011;22;20783;-87
2021/11/07 18:54:08;;;;;;;35.90;16.40;;;;;;;;;;6276745;22;20225;-88
2021/11/07 18:57:17;;;;;;;40.70;16.30;;;;;;;;;;6269968;22;20224;-87
2021/11/07 19:00:27;;;;;;;39.13;16.97;;;;;;;;;;6290680;22;20776;-89
2021/11/07 19:03:32;;;;;;;37.07;15.67;;;;;;;;;;6270370;22;20178;-88
2021/11/07 19:06:39;;;;;;;35.20;14.70;;;;;;;;;;6270537;22;20177;-90
2021/11/07 19:09:44;;;;;;;39.77;17.67;;;;;;;;;;6275008;22;20185;-87
2021/11/07 19:12:50;;;;;;;37.40;16.63;;;;;;;;;;6271815;22;20182;-88
2021/11/07 19:15:55;;;;;;;32.37;15.00;;;;;;;;;;6272469;22;20161;-89
2021/11/07 19:19:00;;;;;;;40.03;17.10;;;;;;;;;;6273666;22;20154;-88
2021/11/07 19:22:08;;;;;;;41.90;18.33;;;;;;;;;;6274138;22;20332;-89
2021/11/07 19:25:14;;;;;;;40.77;17.47;;;;;;;;;;6273465;22;20238;-88
2021/11/07 19:28:20;;;;;;;39.80;18.17;;;;;;;;;;6273448;22;20287;-89
2021/11/07 19:31:26;;;;;;;41.47;17.53;;;;;;;;;;6274221;22;20166;-87
2021/11/07 19:38:54;;;;;;;44.40;19.40;;;;;;;;;;6293738;22;20650;-89
2021/11/07 19:41:59;;;;;;;38.53;18.17;;;;;;;;;;6275934;22;20162;-87
2021/11/07 19:45:06;;;;;;;36.53;17.37;;;;;;;;;;6274976;22;20216;-89
2021/11/07 19:48:14;;;;;;;39.40;17.53;;;;;;;;;;6277221;22;20189;-89
2021/11/07 19:51:20;;;;;;;41.47;16.90;;;;;;;;;;6274258;22;20189;-87
2021/11/07 19:54:29;;;;;;;34.20;15.63;;;;;;;;;;6274732;22;20269;-89
2021/11/07 19:57:34;;;;;;;37.80;17.50;;;;;;;;;;6275406;22;20231;-89
2021/11/07 20:01:13;;;;;;;38.10;17.73;;;;;;;;;;6277236;22;20178;-89
2021/11/07 20:04:38;;;;;;;36.03;16.03;;;;;;;;;;6275356;22;20158;-89
2021/11/07 20:11:06;;;;;;;35.30;16.57;;;;;;;;;;6273999;22;20243;-89
2021/11/07 20:14:14;;;;;;;37.17;16.70;;;;;;;;;;6275369;22;20166;-88
2021/11/07 20:17:24;;;;;;;35.20;16.57;;;;;;;;;;6274129;22;20177;-89
2021/11/07 20:20:31;;;;;;;43.77;19.33;;;;;;;;;;6276301;22;20230;-89
2021/11/07 20:23:41;;;;;;;39.03;17.27;;;;;;;;;;6274273;22;20162;-89
2021/11/07 20:26:49;;;;;;;46.90;19.87;;;;;;;;;;6293039;22;20174;-88
2021/11/07 20:29:54;;;;;;;35.13;16.80;;;;;;;;;;6272961;22;20205;-88
2021/11/07 20:33:03;;;;;;;39.83;16.97;;;;;;;;;;6274339;22;20169;-91
2021/11/07 20:36:13;;;;;;;38.40;17.70;;;;;;;;;;6273039;22;20185;-89
2021/11/07 20:39:21;;;;;;;37.53;16.70;;;;;;;;;;6274455;22;20174;-87
2021/11/07 20:42:29;;;;;;;35.37;17.47;;;;;;;;;;6274094;22;20166;-88
2021/11/07 20:45:53;;;;;;;37.10;17.17;;;;;;;;;;6273557;22;20170;-90
2021/11/07 20:49:07;;;;;;;43.93;18.37;;;;;;;;;;6272953;22;20193;-88
2021/11/07 20:52:13;;;;;;;41.03;18.13;;;;;;;;;;6274716;22;20290;-88
2021/11/07 20:55:24;;;;;;;44.07;19.10;;;;;;;;;;6274069;22;20174;-88
2021/11/07 20:58:38;;;;;;;47.80;19.93;;;;;;;;;;6274657;22;20177;-88
2021/11/07 21:01:47;;;;;;;48.97;17.67;;;;;;;;;;6275879;22;20221;-88
2021/11/07 21:04:55;;;;;;;44.87;18.00;;;;;;;;;;6275077;22;20177;-88
2021/11/07 21:08:03;;;;;;;47.23;18.93;;;;;;;;;;6273137;22;20166;-87
2021/11/07 21:11:14;;;;;;;39.43;17.33;;;;;;;;;;6293011;22;20514;-91
2021/11/07 21:14:26;;;;;;;41.50;18.90;;;;;;;;;;6273470;22;20166;-88
2021/11/07 21:17:50;;;;;;;45.40;20.27;;;;;;;;;;6272633;22;20201;-87
2021/11/07 21:27:40;;;;;;;43.67;19.93;;;;;;;;;;6274739;22;20166;-91
2021/11/07 21:30:51;;;;;;;43.03;18.03;;;;;;;;;;6273648;22;20247;-89
2021/11/07 21:34:03;;;;;;;42.47;18.67;;;;;;;;;;6275111;22;20170;-88
2021/11/07 21:37:13;;;;;;;46.77;19.83;;;;;;;;;;6275176;22;20219;-89
2021/11/07 21:40:28;;;;;;;51.77;20.70;;;;;;;;;;6273513;22;20205;-90
2021/11/07 21:43:37;;;;;;;44.93;19.20;;;;;;;;;;6274954;22;20157;-89
2021/11/07 21:46:49;;;;;;;38.17;16.57;;;;;;;;;;6272047;22;20493;-91
2021/11/07 21:49:56;;;;;;;39.23;17.57;;;;;;;;;;6271926;22;20188;-89
2021/11/07 21:53:03;;;;;;;46.13;18.87;;;;;;;;;;6274664;22;20166;-88
2021/11/07 21:56:09;;;;;;;44.27;18.93;;;;;;;;;;6271975;22;20668;-89
2021/11/07 21:59:14;;;;;;;37.97;16.90;;;;;;;;;;6273390;22;20170;-87
2021/11/07 22:02:21;;;;;;;40.30;17.03;;;;;;;;;;6272010;22;20240;-90
2021/11/07 22:05:27;;;;;;;39.63;18.13;;;;;;;;;;6272164;22;20221;-89
2021/11/07 22:08:32;;;;;;;40.43;17.53;;;;;;;;;;6272363;22;20162;-88
2021/11/07 22:11:40;;;;;;;41.03;17.87;;;;;;;;;;6272709;22;20189;-89
2021/11/07 22:14:50;;;;;;;44.90;18.70;;;;;;;;;;6272108;22;20170;-90
2021/11/07 22:18:01;;;;;;;42.40;19.03;;;;;;;;;;6271920;22;20199;-87
2021/11/07 22:21:12;;;;;;;39.50;17.47;;;;;;;;;;6272224;22;20169;-87
2021/11/07 22:24:19;;;;;;;38.10;18.27;;;;;;;;;;6271840;22;20162;-88
2021/11/07 22:27:25;;;;;;;39.33;17.50;;;;;;;;;;6273706;22;20289;-89
2021/11/07 22:30:31;;;;;;;37.77;17.37;;;;;;;;;;6274251;22;20196;-89
2021/11/07 22:33:42;;;;;;;36.70;17.03;;;;;;;;;;6271706;22;20229;-89
2021/11/07 22:36:47;;;;;;;38.30;17.63;;;;;;;;;;6272349;22;20165;-88
2021/11/07 22:39:53;;;;;;;43.10;17.67;;;;;;;;;;6273076;22;20165;-88
2021/11/07 22:42:58;;;;;;;38.10;18.13;;;;;;;;;;6273946;22;20260;-89
2021/11/07 22:46:08;;;;;;;37.70;17.87;;;;;;;;;;6273740;22;20181;-91
2021/11/07 22:49:21;;;;;;;41.10;18.37;;;;;;;;;;6273991;22;20193;-89
2021/11/07 22:52:34;;;;;;;40.43;18.27;;;;;;;;;;6273373;22;20169;-87
2021/11/07 22:59:18;;;;;;;39.33;17.47;;;;;;;;;;6272931;22;20169;-86
2021/11/07 23:06:01;;;;;;;39.73;17.77;;;;;;;;;;6272294;22;20184;-88
2021/11/07 23:12:30;;;;;;;120.43;49.20;;;;;;;;;;6271807;22;20189;-88
2021/11/07 23:15:36;;;;;;;36.87;18.10;;;;;;;;;;6271453;22;20547;-88
2021/11/07 23:18:41;;;;;;;39.30;18.17;;;;;;;;;;6271284;22;20169;-87
2021/11/07 23:21:49;;;;;;;39.53;17.53;;;;;;;;;;6271353;22;20248;-89
2021/11/07 23:24:54;;;;;;;38.37;17.50;;;;;;;;;;6272319;22;20174;-90
2021/11/07 23:28:02;;;;;;;39.10;18.33;;;;;;;;;;6279139;22;20201;-90
2021/11/07 23:31:09;;;;;;;41.50;17.87;;;;;;;;;;6278759;22;20174;-89
2021/11/07 23:34:55;;;;;;;38.07;17.57;;;;;;;;;;6270211;22;20218;-90
2021/11/07 23:38:00;;;;;;;36.67;16.43;;;;;;;;;;6272450;22;20174;-90
2021/11/07 23:41:06;;;;;;;37.60;17.83;;;;;;;;;;6273985;22;20217;-88
2021/11/07 23:44:12;;;;;;;41.13;18.20;;;;;;;;;;6273823;22;20185;-88
2021/11/07 23:47:20;;;;;;;39.07;17.80;;;;;;;;;;6272390;22;20205;-88
2021/11/07 23:50:43;;;;;;;43.30;19.03;;;;;;;;;;6272328;22;20568;-88
2021/11/07 23:53:50;;;;;;;43.83;19.17;;;;;;;;;;6273386;22;20173;-89
2021/11/07 23:56:59;;;;;;;40.03;18.83;;;;;;;;;;6274571;22;20170;-88
